Terminal Aerodrome Forecast
Issued by NWS

Home | Current Version | Previous Version | Text Only | Print | Product List | Glossary On
Versions: 1 2 3 4 5 6 7 8 9 10 11 12 13 14 15 16 17 18 19 20 21 22 23
000
FTUS43 KJKL 171100
TAFSME
TAF
KSME 171125Z 1712/1812 VRB03KT 6SM -RA BKN060 BKN100
     FM171330 VRB04KT P6SM VCSH SCT050 BKN100
     FM171630 20006KT 6SM -SHRA VCTS SCT045CB OVC060
     FM172230 18004KT 2SM -TSRA OVC035CB
     FM180430 VRB04KT 1SM SHRA VCTS OVC015CB=

USA.gov is the U.S. government's official web portal to all federal, state and local government web resources and services.